Time;durP1;ratioP1;P1;durP2;ratioP2;P2;SDS_P1;SDS_P2;PMS_P1;PMS_P2;Temp;Humidity;BMP_temperature;BMP_pressure;BME280_temperature;BME280_humidity;BME280_pressure;Samples;Min_cycle;Max_cycle;Signal;HPM_P1;HPM_P2
2021/01/05 00:00:25;;;;;;;27.50;17.10;;;3.50;99.90;;;;;;5040592;28;20172;-59
2021/01/05 00:02:52;;;;;;;30.67;17.60;;;3.60;99.90;;;;;;5039388;28;20226;-55
2021/01/05 00:05:20;;;;;;;26.90;15.10;;;3.70;99.90;;;;;;5038411;28;20225;-60
2021/01/05 00:07:45;;;;;;;29.27;16.67;;;3.70;99.90;;;;;;5041488;28;20407;-59
2021/01/05 00:10:11;;;;;;;25.90;16.17;;;3.70;99.90;;;;;;5037441;28;20666;-58
2021/01/05 00:12:37;;;;;;;24.80;15.33;;;3.70;99.90;;;;;;5039574;28;20171;-55
2021/01/05 00:15:07;;;;;;;28.60;16.40;;;3.60;99.90;;;;;;5042979;28;20437;-60
2021/01/05 00:17:32;;;;;;;29.77;16.23;;;3.60;99.90;;;;;;5035975;28;20203;-59
2021/01/05 00:19:58;;;;;;;27.43;16.80;;;3.70;99.90;;;;;;5038196;28;20218;-57
2021/01/05 00:22:23;;;;;;;30.87;17.47;;;3.80;99.90;;;;;;5042067;28;20528;-56
2021/01/05 00:24:49;;;;;;;28.67;17.03;;;3.80;99.90;;;;;;5038376;28;20184;-59
2021/01/05 00:27:14;;;;;;;27.93;16.90;;;3.80;99.90;;;;;;5024880;28;20664;-58
2021/01/05 00:29:41;;;;;;;28.57;16.93;;;3.90;99.90;;;;;;5033248;28;20203;-60
2021/01/05 00:32:09;;;;;;;27.80;16.60;;;4.00;99.90;;;;;;5019693;28;20187;-59
2021/01/05 00:34:35;;;;;;;27.27;16.77;;;4.00;99.90;;;;;;5034476;28;20187;-59
2021/01/05 00:37:02;;;;;;;27.23;16.40;;;4.00;99.90;;;;;;5020466;28;20302;-54
2021/01/05 00:39:27;;;;;;;27.53;16.27;;;4.10;99.90;;;;;;5030428;28;20235;-57
2021/01/05 00:41:53;;;;;;;27.43;16.43;;;4.10;99.90;;;;;;5039065;28;20180;-57
2021/01/05 00:44:18;;;;;;;29.20;17.87;;;4.00;99.90;;;;;;5034139;28;20270;-59
2021/01/05 00:46:44;;;;;;;29.30;18.10;;;4.00;99.90;;;;;;5040390;28;20183;-60
2021/01/05 00:49:10;;;;;;;32.10;18.57;;;4.00;99.90;;;;;;5037959;28;20733;-59
2021/01/05 00:51:35;;;;;;;28.80;17.93;;;3.90;99.90;;;;;;5038513;28;20184;-60
2021/01/05 00:54:01;;;;;;;28.00;15.90;;;4.00;99.90;;;;;;5034861;28;20277;-55
2021/01/05 00:56:26;;;;;;;25.90;16.47;;;3.90;99.90;;;;;;5043637;28;20191;-60
2021/01/05 00:58:52;;;;;;;29.47;16.67;;;3.90;99.90;;;;;;5041817;28;20199;-54
2021/01/05 01:01:20;;;;;;;32.43;18.53;;;3.90;99.90;;;;;;5032216;28;20204;-59
2021/01/05 01:03:46;;;;;;;29.07;17.90;;;4.00;99.90;;;;;;5039020;28;20192;-59
2021/01/05 01:06:12;;;;;;;30.27;17.17;;;4.00;99.90;;;;;;5016126;28;20173;-59
2021/01/05 01:08:38;;;;;;;30.23;17.83;;;3.90;99.90;;;;;;5019483;28;20206;-51
2021/01/05 01:11:03;;;;;;;30.23;18.23;;;3.80;99.90;;;;;;5039839;28;20179;-54
2021/01/05 01:13:29;;;;;;;32.40;17.93;;;3.80;99.90;;;;;;5037869;28;20192;-52
2021/01/05 01:15:55;;;;;;;28.67;17.30;;;3.80;99.90;;;;;;5037801;28;20222;-58
2021/01/05 01:18:20;;;;;;;31.00;17.00;;;3.70;99.90;;;;;;5045984;28;20766;-54
2021/01/05 01:20:46;;;;;;;32.90;18.57;;;3.70;99.90;;;;;;5042263;28;20575;-58
2021/01/05 01:23:11;;;;;;;32.67;17.63;;;3.60;99.90;;;;;;5034519;28;20206;-59
2021/01/05 01:25:37;;;;;;;28.30;17.30;;;3.60;99.90;;;;;;5038956;28;20685;-60
2021/01/05 01:28:03;;;;;;;30.33;17.50;;;3.60;99.90;;;;;;5041349;28;20188;-57
2021/01/05 01:30:28;;;;;;;34.63;18.97;;;3.70;99.90;;;;;;5040032;28;20172;-55
2021/01/05 01:32:54;;;;;;;35.17;20.07;;;3.70;99.90;;;;;;5039180;28;20172;-58
2021/01/05 01:35:19;;;;;;;29.10;17.77;;;3.80;99.90;;;;;;5038865;28;20186;-57
2021/01/05 01:37:45;;;;;;;32.23;18.40;;;3.80;99.90;;;;;;5040722;28;20285;-59
2021/01/05 01:40:12;;;;;;;33.13;18.67;;;3.80;99.90;;;;;;5038301;28;20251;-59
2021/01/05 01:42:38;;;;;;;33.93;19.20;;;3.80;99.90;;;;;;5047113;28;20610;-60
2021/01/05 01:45:07;;;;;;;33.13;18.67;;;3.80;99.90;;;;;;5040547;28;20188;-60
2021/01/05 01:47:42;;;;;;;34.57;18.37;;;3.80;99.90;;;;;;5038987;28;20229;-57
2021/01/05 01:50:11;;;;;;;32.30;18.80;;;3.70;99.90;;;;;;5035398;28;20414;-57
2021/01/05 01:53:14;;;;;;;33.47;19.33;;;3.70;99.90;;;;;;5025764;28;20423;-57
2021/01/05 01:56:03;;;;;;;32.63;18.20;;;3.70;99.90;;;;;;5034805;28;20190;-59
2021/01/05 01:58:57;;;;;;;32.47;18.47;;;3.60;99.90;;;;;;5024473;28;20218;-58
2021/01/05 02:02:05;;;;;;;36.57;19.50;;;3.60;99.90;;;;;;5033491;28;20188;-58
2021/01/05 02:04:52;;;;;;;39.17;21.67;;;3.60;99.90;;;;;;5040361;28;20222;-59
2021/01/05 02:07:35;;;;;;;33.07;18.30;;;3.50;99.90;;;;;;5008190;28;20180;-57
2021/01/05 02:10:01;;;;;;;33.17;19.37;;;3.50;99.90;;;;;;5037199;28;20913;-60
2021/01/05 02:12:51;;;;;;;35.80;19.47;;;3.50;99.90;;;;;;5016608;28;20418;-57
2021/01/05 02:15:26;;;;;;;33.67;18.67;;;3.40;99.90;;;;;;5037315;28;20218;-60
2021/01/05 02:18:01;;;;;;;33.63;19.87;;;3.50;99.90;;;;;;5014048;28;20307;-56
2021/01/05 02:20:46;;;;;;;40.97;21.03;;;3.60;99.90;;;;;;5039806;28;20773;-56
2021/01/05 02:23:55;;;;;;;36.90;20.23;;;3.50;99.90;;;;;;5034007;28;20412;-59
2021/01/05 02:26:31;;;;;;;37.43;19.97;;;3.60;99.90;;;;;;5041284;28;20171;-59
2021/01/05 02:29:07;;;;;;;33.97;19.67;;;3.60;99.90;;;;;;5031727;28;20226;-54
2021/01/05 02:31:55;;;;;;;34.20;19.70;;;3.70;99.90;;;;;;5041025;28;20417;-60
2021/01/05 02:34:30;;;;;;;37.30;19.80;;;3.80;99.90;;;;;;5038458;28;20202;-59
2021/01/05 02:37:20;;;;;;;39.13;22.20;;;3.80;99.90;;;;;;5019773;28;20210;-54
2021/01/05 02:39:56;;;;;;;35.70;20.23;;;3.90;99.90;;;;;;5024883;28;20337;-59
2021/01/05 02:42:53;;;;;;;37.43;19.37;;;3.90;99.90;;;;;;5017032;28;20179;-58
2021/01/05 02:45:42;;;;;;;35.00;20.00;;;3.90;99.90;;;;;;5023310;28;20592;-60
2021/01/05 02:48:22;;;;;;;32.50;19.73;;;3.90;99.90;;;;;;5026202;28;20211;-58
2021/01/05 02:51:24;;;;;;;31.70;18.63;;;3.90;99.90;;;;;;5040628;28;20184;-54
2021/01/05 02:54:22;;;;;;;36.27;19.43;;;3.70;99.90;;;;;;5039573;28;20213;-58
2021/01/05 02:57:21;;;;;;;34.63;19.07;;;3.60;99.90;;;;;;4958891;28;20210;-52
2021/01/05 03:00:01;;;;;;;31.70;18.10;;;3.70;99.90;;;;;;4961911;29;20224;-59
2021/01/05 03:02:49;;;;;;;33.60;19.17;;;3.70;99.90;;;;;;4943181;29;20190;-59
2021/01/05 03:05:15;;;;;;;30.97;17.87;;;3.80;99.90;;;;;;4961396;29;20189;-60
2021/01/05 03:07:40;;;;;;;36.17;20.10;;;3.70;99.90;;;;;;4966504;29;20226;-58
2021/01/05 03:10:28;;;;;;;31.20;18.33;;;3.50;99.90;;;;;;4957317;28;20214;-58
2021/01/05 03:13:28;;;;;;;32.87;19.27;;;3.40;99.90;;;;;;4945694;29;20202;-58
2021/01/05 03:16:04;;;;;;;33.67;18.83;;;3.30;99.90;;;;;;4951155;29;20182;-57
2021/01/05 03:18:48;;;;;;;33.83;19.33;;;3.30;99.90;;;;;;4964105;29;20606;-58
2021/01/05 03:21:25;;;;;;;36.37;19.40;;;3.10;99.90;;;;;;4959478;29;20183;-59
2021/01/05 03:23:51;;;;;;;32.93;18.77;;;3.10;99.90;;;;;;4959644;29;20258;-60
2021/01/05 03:26:22;;;;;;;33.67;19.07;;;3.20;99.90;;;;;;4950036;29;20958;-53
2021/01/05 03:28:47;;;;;;;29.93;18.10;;;3.30;99.90;;;;;;4956660;29;20764;-55
2021/01/05 03:31:18;;;;;;;34.00;19.20;;;3.30;99.90;;;;;;4959991;29;20422;-57
2021/01/05 03:33:48;;;;;;;36.07;20.10;;;3.40;99.90;;;;;;4991563;28;20200;-59
2021/01/05 03:36:14;;;;;;;35.90;20.03;;;3.40;99.90;;;;;;5020863;28;20446;-53
2021/01/05 03:38:39;;;;;;;35.13;19.70;;;3.40;99.90;;;;;;5009542;28;20318;-60
2021/01/05 03:41:05;;;;;;;37.50;21.37;;;3.40;99.90;;;;;;5006442;28;20173;-59
2021/01/05 03:43:30;;;;;;;37.47;20.73;;;3.40;99.90;;;;;;5030375;28;20631;-57
2021/01/05 03:45:56;;;;;;;36.43;20.57;;;3.50;99.90;;;;;;5039332;28;20203;-59
2021/01/05 03:48:21;;;;;;;41.47;23.60;;;3.40;99.90;;;;;;5042631;28;20203;-60
2021/01/05 03:50:47;;;;;;;39.47;21.60;;;3.30;99.90;;;;;;5028628;28;20214;-60
2021/01/05 03:53:13;;;;;;;41.97;22.47;;;3.40;99.90;;;;;;5042016;28;20176;-58
2021/01/05 03:55:38;;;;;;;42.17;21.73;;;3.20;99.90;;;;;;5020003;28;20531;-59
2021/01/05 03:58:04;;;;;;;43.87;24.20;;;3.10;99.90;;;;;;5043397;28;20257;-56
2021/01/05 04:00:30;;;;;;;38.50;21.70;;;2.90;99.90;;;;;;5041802;28;20656;-56
2021/01/05 04:02:57;;;;;;;42.20;22.17;;;2.90;99.90;;;;;;5042731;28;20187;-58
2021/01/05 04:05:26;;;;;;;44.13;23.73;;;2.90;99.90;;;;;;5041128;28;20176;-59
2021/01/05 04:07:52;;;;;;;39.17;20.97;;;2.80;99.90;;;;;;5040210;28;20210;-59
2021/01/05 04:10:18;;;;;;;40.13;21.50;;;2.90;99.90;;;;;;5039929;28;20176;-58
2021/01/05 04:12:43;;;;;;;39.63;20.83;;;2.90;99.90;;;;;;5040424;28;20202;-58
2021/01/05 04:15:16;;;;;;;58.00;25.70;;;3.00;99.90;;;;;;5036825;28;20184;-59
2021/01/05 04:17:42;;;;;;;46.80;23.83;;;2.90;99.90;;;;;;5030543;28;20204;-56
2021/01/05 04:20:09;;;;;;;44.90;22.57;;;2.80;99.90;;;;;;5021516;28;20179;-59
2021/01/05 04:22:35;;;;;;;43.30;22.43;;;2.80;99.90;;;;;;5020058;28;20172;-56
2021/01/05 04:25:00;;;;;;;42.70;22.60;;;2.80;99.90;;;;;;5020675;28;20924;-54
2021/01/05 04:27:26;;;;;;;38.27;20.23;;;2.80;99.90;;;;;;5019702;28;20704;-55
2021/01/05 04:29:53;;;;;;;38.93;20.70;;;2.80;99.90;;;;;;5024221;28;20600;-59
2021/01/05 04:32:19;;;;;;;36.67;21.43;;;2.70;99.90;;;;;;5036593;28;20215;-55
2021/01/05 04:34:44;;;;;;;38.00;21.17;;;2.70;99.90;;;;;;5042866;28;20659;-58
2021/01/05 04:37:10;;;;;;;36.63;21.30;;;2.60;99.90;;;;;;5023234;28;20300;-53
2021/01/05 04:39:36;;;;;;;40.33;22.13;;;2.90;99.90;;;;;;5035215;28;20223;-59
2021/01/05 04:42:04;;;;;;;39.23;21.70;;;2.90;99.90;;;;;;5040330;28;20670;-57
2021/01/05 04:44:37;;;;;;;38.77;21.97;;;3.00;99.90;;;;;;5018721;28;20567;-57
2021/01/05 04:47:34;;;;;;;41.90;22.23;;;3.10;99.90;;;;;;5041905;28;20207;-58
2021/01/05 04:50:09;;;;;;;39.20;21.87;;;3.00;99.90;;;;;;4945723;28;20532;-57
2021/01/05 04:52:54;;;;;;;39.33;21.80;;;3.10;99.90;;;;;;4941221;29;20242;-57
2021/01/05 04:55:32;;;;;;;40.10;21.93;;;3.10;99.90;;;;;;4939997;28;20427;-58
2021/01/05 04:58:10;;;;;;;40.07;22.03;;;2.90;99.90;;;;;;4945868;29;20609;-58
2021/01/05 05:00:39;;;;;;;42.30;23.40;;;2.90;99.90;;;;;;4955285;28;20194;-58
2021/01/05 05:03:21;;;;;;;38.23;22.17;;;2.90;99.90;;;;;;4957846;28;20269;-59
2021/01/05 05:06:01;;;;;;;51.37;26.20;;;3.00;99.90;;;;;;4946312;28;20192;-60
2021/01/05 05:08:40;;;;;;;41.03;22.57;;;3.00;99.90;;;;;;4962989;28;20457;-56
2021/01/05 05:11:12;;;;;;;41.20;22.03;;;2.90;99.90;;;;;;4946196;28;20429;-58
2021/01/05 05:14:02;;;;;;;38.17;21.03;;;2.90;99.90;;;;;;4951009;29;20281;-58
2021/01/05 05:17:19;;;;;;;36.53;21.33;;;2.90;99.90;;;;;;4954895;29;20926;-57
2021/01/05 05:20:16;;;;;;;36.70;20.07;;;2.80;99.90;;;;;;4940245;28;20443;-57
2021/01/05 05:23:06;;;;;;;37.27;21.13;;;3.00;99.90;;;;;;4928040;28;20217;-59
2021/01/05 05:25:41;;;;;;;44.87;21.83;;;3.10;99.90;;;;;;4959452;28;20720;-54
2021/01/05 05:28:23;;;;;;;35.93;20.60;;;3.10;99.90;;;;;;5036914;28;20195;-59
2021/01/05 05:30:49;;;;;;;39.23;21.40;;;3.10;99.90;;;;;;5039233;28;20417;-59
2021/01/05 05:33:30;;;;;;;38.83;21.27;;;2.90;99.90;;;;;;5019737;28;20406;-60
2021/01/05 05:36:16;;;;;;;38.40;21.33;;;2.90;99.90;;;;;;5024175;28;20583;-58
2021/01/05 05:38:55;;;;;;;44.40;21.80;;;2.70;99.90;;;;;;5035338;28;20482;-59
2021/01/05 05:41:32;;;;;;;37.50;21.10;;;2.60;99.90;;;;;;5029278;28;20438;-58
2021/01/05 05:44:25;;;;;;;36.00;21.33;;;2.50;99.90;;;;;;5032028;28;20476;-58
2021/01/05 05:47:13;;;;;;;36.00;21.33;;;2.50;99.90;;;;;;5021162;28;20762;-59
2021/01/05 05:49:46;;;;;;;42.67;23.07;;;2.40;99.90;;;;;;5025756;28;20468;-56
2021/01/05 05:52:33;;;;;;;40.60;21.97;;;2.50;99.90;;;;;;5037028;28;20423;-59
2021/01/05 05:55:01;;;;;;;39.67;22.07;;;2.40;99.90;;;;;;5017738;28;20419;-59
2021/01/05 05:57:35;;;;;;;41.07;23.00;;;2.40;99.90;;;;;;5022003;28;20199;-57
2021/01/05 06:00:09;;;;;;;44.17;22.57;;;2.50;99.90;;;;;;5035289;28;21003;-58
2021/01/05 06:02:35;;;;;;;43.93;23.20;;;2.40;99.90;;;;;;5015338;28;20422;-56
2021/01/05 06:05:02;;;;;;;40.40;22.77;;;2.30;99.90;;;;;;5018951;28;20427;-58
2021/01/05 06:07:27;;;;;;;44.50;23.20;;;2.40;99.90;;;;;;5036580;28;20195;-58
2021/01/05 06:09:53;;;;;;;44.83;23.37;;;2.30;99.90;;;;;;5040141;28;20432;-58
2021/01/05 06:12:18;;;;;;;49.63;23.73;;;2.20;99.90;;;;;;5033786;28;20183;-58
2021/01/05 06:14:44;;;;;;;46.50;24.17;;;2.10;99.90;;;;;;5033927;28;20184;-58
2021/01/05 06:17:09;;;;;;;43.67;22.47;;;2.00;99.90;;;;;;5036343;28;20196;-59
2021/01/05 06:19:35;;;;;;;44.40;23.40;;;2.00;99.90;;;;;;5039403;28;20199;-59
2021/01/05 06:22:00;;;;;;;42.63;23.37;;;2.20;99.90;;;;;;5033001;28;20665;-59
2021/01/05 06:24:26;;;;;;;44.63;23.17;;;2.20;99.90;;;;;;5040769;28;20262;-57
2021/01/05 06:26:51;;;;;;;44.27;22.77;;;2.20;99.90;;;;;;5035017;28;20214;-57
2021/01/05 06:29:17;;;;;;;40.30;21.90;;;2.30;99.90;;;;;;5033974;28;20217;-59
2021/01/05 06:31:42;;;;;;;41.83;22.27;;;2.40;99.90;;;;;;5018796;28;20238;-58
2021/01/05 06:34:08;;;;;;;39.77;21.73;;;2.50;99.90;;;;;;5028784;28;20625;-60
2021/01/05 06:36:33;;;;;;;39.77;21.53;;;2.60;99.90;;;;;;5029652;28;20180;-55
2021/01/05 06:39:00;;;;;;;36.33;19.90;;;2.70;99.90;;;;;;5017869;28;20200;-58
2021/01/05 06:41:26;;;;;;;40.37;21.77;;;2.70;99.90;;;;;;5039829;28;20231;-59
2021/01/05 06:43:51;;;;;;;35.33;20.23;;;2.70;99.90;;;;;;5026640;28;20192;-58
2021/01/05 06:46:17;;;;;;;40.47;21.17;;;2.60;99.90;;;;;;5025345;28;20195;-60
2021/01/05 06:48:42;;;;;;;31.53;19.30;;;2.50;99.90;;;;;;5024711;28;20210;-54
2021/01/05 06:51:08;;;;;;;37.87;21.33;;;2.40;99.90;;;;;;5040935;28;20591;-59
2021/01/05 06:53:34;;;;;;;33.77;20.93;;;2.40;99.90;;;;;;5025799;28;20250;-59
2021/01/05 06:55:59;;;;;;;38.57;22.07;;;2.40;99.90;;;;;;5014159;28;20231;-57
2021/01/05 06:58:25;;;;;;;35.57;19.77;;;2.40;99.90;;;;;;5030647;28;20310;-57
2021/01/05 07:00:50;;;;;;;39.20;21.67;;;2.60;99.90;;;;;;5035890;28;20231;-58
2021/01/05 07:03:16;;;;;;;38.90;21.43;;;2.60;99.90;;;;;;5028266;28;20214;-59
2021/01/05 07:05:41;;;;;;;39.00;20.77;;;2.70;99.90;;;;;;5017110;28;20882;-58
2021/01/05 07:08:07;;;;;;;39.87;21.27;;;2.80;99.90;;;;;;5022217;28;20193;-58
2021/01/05 07:10:32;;;;;;;37.50;20.20;;;2.80;99.90;;;;;;5018323;28;20200;-57
2021/01/05 07:12:58;;;;;;;34.60;20.40;;;2.70;99.90;;;;;;5036702;28;20211;-57
2021/01/05 07:15:24;;;;;;;36.20;20.87;;;2.50;99.90;;;;;;5020312;28;20203;-57
2021/01/05 07:17:49;;;;;;;38.90;22.03;;;2.60;99.90;;;;;;5027731;28;20239;-59
2021/01/05 07:20:16;;;;;;;38.50;21.20;;;2.60;99.90;;;;;;5023579;28;20184;-57
2021/01/05 07:22:41;;;;;;;38.50;20.43;;;2.70;99.90;;;;;;5037148;28;20195;-57
2021/01/05 07:25:10;;;;;;;36.43;20.90;;;2.80;99.90;;;;;;5025555;28;20439;-60
2021/01/05 07:27:35;;;;;;;36.83;20.63;;;2.90;99.90;;;;;;5015980;28;20181;-58
2021/01/05 07:30:02;;;;;;;41.60;21.83;;;3.10;99.90;;;;;;5015843;28;20203;-58
2021/01/05 07:32:27;;;;;;;36.37;21.63;;;3.20;99.90;;;;;;5031262;28;20652;-57
2021/01/05 07:34:53;;;;;;;41.40;22.10;;;3.10;99.90;;;;;;5022605;28;20195;-57
2021/01/05 07:37:22;;;;;;;40.27;21.73;;;2.90;99.90;;;;;;5027322;28;20294;-56
2021/01/05 07:39:49;;;;;;;39.97;21.90;;;2.90;99.90;;;;;;5033578;28;20203;-59
2021/01/05 07:42:20;;;;;;;51.80;25.90;;;2.90;99.90;;;;;;5038763;28;20172;-55
2021/01/05 07:44:48;;;;;;;42.07;22.80;;;2.80;99.90;;;;;;5042995;28;20652;-55
2021/01/05 07:47:14;;;;;;;39.10;22.67;;;2.80;99.90;;;;;;5043655;28;20442;-60
2021/01/05 07:49:40;;;;;;;42.87;21.17;;;2.70;99.90;;;;;;5041329;28;20981;-52
2021/01/05 07:52:22;;;;;;;39.30;21.53;;;2.70;99.90;;;;;;5040161;28;20426;-58
2021/01/05 07:54:47;;;;;;;39.73;22.13;;;2.60;99.90;;;;;;5040678;28;20182;-60
2021/01/05 07:57:13;;;;;;;33.73;20.73;;;2.40;99.90;;;;;;5019814;28;20463;-56
2021/01/05 07:59:39;;;;;;;37.83;20.13;;;2.40;99.90;;;;;;5018658;28;20215;-56
2021/01/05 08:02:06;;;;;;;38.87;21.40;;;2.40;99.90;;;;;;5016840;28;20280;-57
2021/01/05 08:04:32;;;;;;;42.77;19.93;;;2.30;99.90;;;;;;5015769;28;20202;-53
2021/01/05 08:06:58;;;;;;;39.27;20.80;;;2.30;99.90;;;;;;5022550;28;20498;-57
2021/01/05 08:09:24;;;;;;;37.83;21.03;;;2.30;99.90;;;;;;5019646;28;20193;-57
2021/01/05 08:11:50;;;;;;;43.83;23.13;;;2.30;99.90;;;;;;5019017;28;20434;-59
2021/01/05 08:14:15;;;;;;;39.47;21.37;;;2.30;99.90;;;;;;5019825;28;20184;-57
2021/01/05 08:16:41;;;;;;;41.40;21.97;;;2.30;99.90;;;;;;5017699;28;20179;-60
2021/01/05 08:19:06;;;;;;;41.00;21.20;;;2.30;99.90;;;;;;5018648;28;20568;-57
2021/01/05 08:21:32;;;;;;;43.40;23.30;;;2.30;99.90;;;;;;5001143;28;20196;-60
2021/01/05 08:23:57;;;;;;;40.90;22.83;;;2.40;99.90;;;;;;5026375;28;20183;-59
2021/01/05 08:26:23;;;;;;;39.50;21.03;;;2.40;99.90;;;;;;5019471;28;20186;-59
2021/01/05 08:28:49;;;;;;;41.40;21.33;;;2.30;99.90;;;;;;5020019;28;20202;-59
2021/01/05 08:31:15;;;;;;;41.97;21.83;;;2.20;99.90;;;;;;5025217;28;20514;-57
2021/01/05 08:33:41;;;;;;;37.13;21.70;;;2.20;99.90;;;;;;5019116;28;20244;-60
2021/01/05 08:36:08;;;;;;;41.83;22.37;;;2.20;99.90;;;;;;5022434;28;20927;-57
2021/01/05 08:38:33;;;;;;;42.70;23.53;;;2.20;99.90;;;;;;5018415;28;20702;-59
2021/01/05 08:40:59;;;;;;;37.93;21.13;;;2.20;99.90;;;;;;5018786;28;20416;-58
2021/01/05 08:43:24;;;;;;;40.13;21.50;;;2.30;99.90;;;;;;5021992;28;20184;-60
2021/01/05 08:45:50;;;;;;;40.87;22.13;;;2.60;99.90;;;;;;5023624;28;20216;-57
2021/01/05 08:48:16;;;;;;;42.37;22.47;;;2.50;99.90;;;;;;5034532;28;20203;-55
2021/01/05 08:50:41;;;;;;;41.43;22.50;;;2.50;99.90;;;;;;5016934;28;20203;-58
2021/01/05 08:53:12;;;;;;;37.30;19.97;;;2.60;99.90;;;;;;5035622;28;20179;-59
2021/01/05 08:55:39;;;;;;;40.27;22.33;;;2.70;99.90;;;;;;5039775;28;20191;-54
2021/01/05 08:58:05;;;;;;;35.57;19.83;;;2.80;99.90;;;;;;5036804;28;20482;-58
2021/01/05 09:00:30;;;;;;;39.40;21.47;;;2.80;99.90;;;;;;5040148;28;20422;-58
2021/01/05 09:02:56;;;;;;;32.90;20.17;;;2.80;99.90;;;;;;5035001;28;20287;-57
2021/01/05 09:05:23;;;;;;;37.53;21.47;;;2.70;99.90;;;;;;5036231;28;20536;-57
2021/01/05 09:07:49;;;;;;;34.93;19.47;;;2.70;99.90;;;;;;5038923;28;20556;-59
2021/01/05 09:10:22;;;;;;;29.97;18.50;;;2.60;99.90;;;;;;5029756;28;20176;-58
2021/01/05 09:12:48;;;;;;;32.00;18.53;;;2.50;99.90;;;;;;5040251;28;20164;-60
2021/01/05 09:15:16;;;;;;;33.63;19.67;;;2.40;99.90;;;;;;5022903;28;20437;-63
2021/01/05 09:17:46;;;;;;;29.40;17.90;;;2.30;99.90;;;;;;5042879;28;20204;-60
2021/01/05 09:20:23;;;;;;;27.83;17.77;;;2.30;99.90;;;;;;5020170;28;20433;-54
2021/01/05 09:22:49;;;;;;;27.60;16.20;;;2.10;99.90;;;;;;5038924;28;20442;-58
2021/01/05 09:25:15;;;;;;;28.00;17.53;;;2.10;99.90;;;;;;5041116;28;20434;-56
2021/01/05 09:27:44;;;;;;;30.00;18.33;;;2.00;99.90;;;;;;5035331;28;20736;-58
2021/01/05 09:30:14;;;;;;;31.23;17.80;;;2.10;99.90;;;;;;5029429;28;20465;-52
2021/01/05 09:32:40;;;;;;;29.73;17.97;;;2.20;99.90;;;;;;5037642;28;20414;-60
2021/01/05 09:35:06;;;;;;;26.47;17.00;;;2.20;99.90;;;;;;5020873;28;20421;-58
2021/01/05 09:37:31;;;;;;;31.17;18.03;;;2.30;99.90;;;;;;5023370;28;20199;-60
2021/01/05 09:39:57;;;;;;;29.47;18.30;;;2.40;99.90;;;;;;5040172;28;20699;-59
2021/01/05 09:42:23;;;;;;;28.20;18.20;;;2.50;99.90;;;;;;5038838;28;20179;-61
2021/01/05 09:44:49;;;;;;;28.17;17.37;;;2.60;99.90;;;;;;5044942;28;20172;-57
2021/01/05 09:47:22;;;;;;;32.40;19.20;;;2.60;99.90;;;;;;5040672;28;20298;-57
2021/01/05 09:49:49;;;;;;;28.93;17.77;;;2.60;99.90;;;;;;5034424;28;20683;-59
2021/01/05 09:52:15;;;;;;;29.33;17.50;;;2.50;99.90;;;;;;5034259;28;20408;-59
2021/01/05 09:54:44;;;;;;;31.13;18.47;;;2.50;99.90;;;;;;5038066;28;20601;-59
2021/01/05 09:57:10;;;;;;;28.53;17.33;;;2.40;99.90;;;;;;5039222;28;20195;-59
2021/01/05 09:59:38;;;;;;;29.13;17.23;;;2.40;99.90;;;;;;5037123;28;20423;-59
2021/01/05 10:02:05;;;;;;;30.10;18.77;;;2.40;99.90;;;;;;5037712;28;20910;-56
2021/01/05 10:04:31;;;;;;;28.87;18.07;;;2.40;99.90;;;;;;5032631;28;20447;-57
2021/01/05 10:06:56;;;;;;;31.20;18.23;;;2.60;99.90;;;;;;5036527;28;20437;-59
2021/01/05 10:09:22;;;;;;;30.10;19.13;;;2.50;99.90;;;;;;5039262;28;20214;-60
2021/01/05 10:11:47;;;;;;;26.73;18.00;;;2.50;99.90;;;;;;5032567;28;20190;-57
2021/01/05 10:14:16;;;;;;;28.37;17.20;;;2.50;99.90;;;;;;5039095;28;20217;-58
2021/01/05 10:16:43;;;;;;;29.33;17.93;;;2.50;99.90;;;;;;5040164;28;20193;-59
2021/01/05 10:19:12;;;;;;;33.03;19.13;;;2.50;99.90;;;;;;5043449;28;20447;-60
2021/01/05 10:21:40;;;;;;;25.80;17.30;;;2.50;99.90;;;;;;5041880;28;20429;-58
2021/01/05 10:24:09;;;;;;;29.43;17.63;;;2.30;99.90;;;;;;5041633;28;20179;-60
2021/01/05 10:26:35;;;;;;;27.40;17.37;;;2.30;99.90;;;;;;5021724;28;20183;-55
2021/01/05 10:29:01;;;;;;;26.03;17.07;;;2.40;99.90;;;;;;5030680;28;20458;-49
2021/01/05 10:31:35;;;;;;;28.07;17.57;;;3.10;99.90;;;;;;5033480;28;20202;-50
2021/01/05 10:34:00;;;;;;;23.70;15.77;;;2.40;99.90;;;;;;5033783;28;20437;-54
2021/01/05 10:36:26;;;;;;;30.43;17.87;;;2.30;99.90;;;;;;5034258;28;20406;-53
2021/01/05 10:38:51;;;;;;;28.40;16.97;;;2.30;99.90;;;;;;5038946;28;20211;-55
2021/01/05 10:41:17;;;;;;;26.77;16.43;;;2.30;99.90;;;;;;5053004;28;20175;-50
2021/01/05 10:43:44;;;;;;;27.23;17.07;;;2.30;99.90;;;;;;5052839;28;20677;-52
2021/01/05 10:46:10;;;;;;;25.53;16.27;;;2.30;99.90;;;;;;5044310;28;20414;-52
2021/01/05 10:48:35;;;;;;;29.30;17.23;;;2.40;99.90;;;;;;5033755;28;20192;-55
2021/01/05 10:51:03;;;;;;;30.40;17.50;;;2.50;99.90;;;;;;5033803;28;20527;-55
2021/01/05 10:53:29;;;;;;;27.57;17.53;;;2.60;99.90;;;;;;5034135;28;20186;-55
2021/01/05 10:55:55;;;;;;;29.13;17.60;;;2.70;99.90;;;;;;5033494;28;20203;-53
2021/01/05 10:58:21;;;;;;;28.03;17.10;;;2.60;99.90;;;;;;5033324;28;20235;-57
2021/01/05 11:00:48;;;;;;;31.63;18.17;;;3.50;99.90;;;;;;5030650;28;20466;-53
2021/01/05 11:03:14;;;;;;;28.33;17.90;;;2.80;99.90;;;;;;5032311;28;20674;-50
2021/01/05 11:05:39;;;;;;;28.47;18.03;;;2.80;99.90;;;;;;5028119;28;20434;-50
2021/01/05 11:08:05;;;;;;;29.43;18.07;;;2.80;99.90;;;;;;5032904;28;20235;-55
2021/01/05 11:10:31;;;;;;;31.13;19.17;;;2.70;99.90;;;;;;5033224;28;20180;-48
2021/01/05 11:12:57;;;;;;;29.57;17.00;;;2.70;99.90;;;;;;5033083;28;20694;-56
2021/01/05 11:15:23;;;;;;;32.70;18.20;;;2.70;99.90;;;;;;5033414;28;20172;-54
2021/01/05 11:17:49;;;;;;;28.77;18.40;;;2.50;99.90;;;;;;5034254;28;20219;-55
2021/01/05 11:20:16;;;;;;;27.80;17.37;;;2.50;99.90;;;;;;5037120;28;20180;-55
2021/01/05 11:22:42;;;;;;;29.60;17.87;;;2.40;99.90;;;;;;5036561;28;20513;-54
2021/01/05 11:25:12;;;;;;;27.73;17.33;;;2.50;99.90;;;;;;5036771;28;20206;-52
2021/01/05 11:27:37;;;;;;;28.40;17.03;;;2.50;99.90;;;;;;5036288;28;20635;-54
2021/01/05 11:30:04;;;;;;;27.43;17.83;;;2.60;99.90;;;;;;5018959;28;20671;-54
2021/01/05 11:32:30;;;;;;;29.87;18.73;;;2.60;99.90;;;;;;5036624;28;20229;-55
2021/01/05 11:34:55;;;;;;;28.57;17.77;;;2.50;99.90;;;;;;5037104;28;20582;-55
2021/01/05 11:37:22;;;;;;;29.67;17.63;;;2.50;99.90;;;;;;5036637;28;20206;-54
2021/01/05 11:39:49;;;;;;;29.13;17.57;;;2.40;99.90;;;;;;5036848;28;20204;-57
2021/01/05 11:42:21;;;;;;;28.83;18.30;;;2.50;99.90;;;;;;5036763;28;20267;-53
2021/01/05 11:44:47;;;;;;;29.87;18.00;;;2.50;99.90;;;;;;5036851;28;20217;-53
2021/01/05 11:47:15;;;;;;;31.83;19.30;;;2.50;99.90;;;;;;5036172;28;20421;-55
2021/01/05 11:49:41;;;;;;;28.40;17.10;;;2.50;99.90;;;;;;5036511;28;20944;-55
2021/01/05 11:52:07;;;;;;;27.67;17.80;;;2.60;99.90;;;;;;5035843;28;20312;-56
2021/01/05 11:54:32;;;;;;;30.83;18.43;;;2.70;99.90;;;;;;5032607;28;20258;-54
2021/01/05 11:56:59;;;;;;;30.10;17.87;;;2.70;99.90;;;;;;5034843;28;20192;-53
2021/01/05 11:59:26;;;;;;;28.60;17.93;;;2.70;99.90;;;;;;5033775;28;20307;-53
2021/01/05 12:01:52;;;;;;;28.90;18.00;;;2.60;99.90;;;;;;5035779;28;20188;-51
2021/01/05 12:04:18;;;;;;;26.43;15.93;;;2.60;99.90;;;;;;5030828;28;20203;-55
2021/01/05 12:06:48;;;;;;;28.27;17.93;;;2.60;99.90;;;;;;5035842;28;20184;-56
2021/01/05 12:09:14;;;;;;;29.10;17.90;;;2.60;99.90;;;;;;5035323;28;20211;-50
2021/01/05 12:11:39;;;;;;;28.80;17.17;;;2.60;99.90;;;;;;5036067;28;20664;-52
2021/01/05 12:14:05;;;;;;;29.97;18.37;;;2.70;99.90;;;;;;5035890;28;20180;-56
2021/01/05 12:16:33;;;;;;;31.20;17.83;;;2.70;99.90;;;;;;5029097;28;20184;-51
2021/01/05 12:19:00;;;;;;;30.23;18.07;;;2.80;99.90;;;;;;5023518;28;20263;-53
2021/01/05 12:21:29;;;;;;;27.67;17.00;;;2.80;99.90;;;;;;5027370;28;20195;-52
2021/01/05 12:23:55;;;;;;;29.67;18.67;;;2.80;99.90;;;;;;5029815;28;20186;-51
2021/01/05 12:26:31;;;;;;;27.67;17.00;;;2.80;99.90;;;;;;5034549;28;20196;-52
2021/01/05 12:28:58;;;;;;;26.07;16.80;;;2.70;99.90;;;;;;5035548;28;20200;-54
2021/01/05 12:31:25;;;;;;;28.87;17.33;;;2.90;99.90;;;;;;5034227;28;20266;-51
2021/01/05 12:33:52;;;;;;;27.33;17.53;;;2.90;99.90;;;;;;5031006;28;20275;-53
2021/01/05 12:36:26;;;;;;;26.73;16.93;;;3.20;99.90;;;;;;5029455;28;20267;-51
2021/01/05 12:38:52;;;;;;;31.33;17.43;;;3.40;99.90;;;;;;5015357;28;20606;-55
2021/01/05 12:41:17;;;;;;;27.67;16.93;;;3.30;99.90;;;;;;5031738;28;20278;-55
2021/01/05 12:43:43;;;;;;;26.67;16.67;;;3.30;99.90;;;;;;5034933;28;20176;-51
2021/01/05 12:46:10;;;;;;;24.80;15.63;;;3.20;99.90;;;;;;5028191;28;20182;-50
2021/01/05 12:48:36;;;;;;;28.33;17.53;;;3.30;99.90;;;;;;5026923;28;20219;-54